^^
Saratoga-Weather Station Historical Data
Daily Summary for March 11, 2021 Units:  Both    English   Metric
Daily Weekly Monthly Yearly Custom
  High: Low: Average:
Temperature: 82.8 °F /  28.2 °C 60.6 °F /  15.9 °C 72.3 °F /  22.4 °C
Dew Point: 62.4 °F /  16.9 °C 56.8 °F /  13.8 °C 59.2 °F /  15.1 °C
Humidity: 88% 46% 65%
Wind Speed: 9mph /  14.5km/h - 1.7mph /  2.7km/h
Wind Gust: 11mph /  17.7km/h - -
Wind- - SW
Pressure: 30.1 in /  1018.6 hPa 30 in /  1016.9 hPa -
Precipitation: 0 in /  0.0 mm    
Historical Graphs
 
 
Tabular Data for March 11, 2021
Time Temperature Dew Point Pressure Wind Wind Speed Wind Gust Humidity Rainfall Rate (Hourly) solar
00:01 68.9 °F /  20.5 °C 58.3 °F /  14.6 °C 30.1in /  1018.3hPa WSW 2mph /  3.2km/h 3mph /  4.8km/h 69% 0in /  0.0mm 0 W/m2
00:06 69.1 °F /  20.6 °C 58.5 °F /  14.7 °C 30.1in /  1018.3hPa WSW 0.9mph /  1.4km/h 2mph /  3.2km/h 69% 0in /  0.0mm 0 W/m2
00:11 69.1 °F /  20.6 °C 58.5 °F /  14.7 °C 30.1in /  1018.3hPa WSW 2mph /  3.2km/h 2mph /  3.2km/h 69% 0in /  0.0mm 0 W/m2
00:16 69.1 °F /  20.6 °C 58.5 °F /  14.7 °C 30.1in /  1018.3hPa WSW 2.9mph /  4.7km/h 4mph /  6.4km/h 69% 0in /  0.0mm 0 W/m2
00:21 68.9 °F /  20.5 °C 58.3 °F /  14.6 °C 30.1in /  1018.3hPa WSW 2mph /  3.2km/h 3mph /  4.8km/h 69% 0in /  0.0mm 0 W/m2
00:27 68.7 °F /  20.4 °C 58.5 °F /  14.7 °C 30.1in /  1018.3hPa SW 0.9mph /  1.4km/h 4mph /  6.4km/h 70% 0in /  0.0mm 0 W/m2
00:32 68.7 °F /  20.4 °C 58.5 °F /  14.7 °C 30.1in /  1018.3hPa WSW 0.9mph /  1.4km/h 3mph /  4.8km/h 70% 0in /  0.0mm 0 W/m2
00:37 68.5 °F /  20.3 °C 58.3 °F /  14.6 °C 30.1in /  1018.3hPa WSW 2mph /  3.2km/h 3mph /  4.8km/h 70% 0in /  0.0mm 0 W/m2
00:42 68.5 °F /  20.3 °C 58.3 °F /  14.6 °C 30.1in /  1018.0hPa WSW 2mph /  3.2km/h 4mph /  6.4km/h 70% 0in /  0.0mm 0 W/m2
00:47 68.4 °F /  20.2 °C 58.6 °F /  14.8 °C 30.1in /  1018.0hPa WSW 2mph /  3.2km/h 2mph /  3.2km/h 71% 0in /  0.0mm 0 W/m2
00:52 68.2 °F /  20.1 °C 58.5 °F /  14.7 °C 30.1in /  1018.0hPa WSW 0.9mph /  1.4km/h 4mph /  6.4km/h 71% 0in /  0.0mm 0 W/m2
00:57 68.2 °F /  20.1 °C 58.1 °F /  14.5 °C 30.1in /  1018.0hPa SW 2mph /  3.2km/h 3mph /  4.8km/h 70% 0in /  0.0mm 0 W/m2
01:02 68.2 °F /  20.1 °C 58.1 °F /  14.5 °C 30.1in /  1018.0hPa WSW 2mph /  3.2km/h 4mph /  6.4km/h 70% 0in /  0.0mm 0 W/m2
01:07 68.2 °F /  20.1 °C 58.1 °F /  14.5 °C 30.1in /  1018.0hPa WSW 0.9mph /  1.4km/h 2mph /  3.2km/h 70% 0in /  0.0mm 0 W/m2
01:12 68.4 °F /  20.2 °C 58.3 °F /  14.6 °C 30.1in /  1018.0hPa Calm   4mph /  6.4km/h 70% 0in /  0.0mm 0 W/m2
01:17 68.2 °F /  20.1 °C 58.1 °F /  14.5 °C 30.1in /  1018.0hPa SE 2mph /  3.2km/h 3mph /  4.8km/h 70% 0in /  0.0mm 0 W/m2
01:22 67.6 °F /  19.8 °C 58.6 °F /  14.8 °C 30.1in /  1018.0hPa SE 0.9mph /  1.4km/h 3mph /  4.8km/h 73% 0in /  0.0mm 0 W/m2
01:27 67.3 °F /  19.6 °C 58.3 °F /  14.6 °C 30.1in /  1018.0hPa Calm     73% 0in /  0.0mm 0 W/m2
01:32 66.7 °F /  19.3 °C 58.1 °F /  14.5 °C 30.1in /  1018.0hPa Calm     74% 0in /  0.0mm 0 W/m2
01:37 66.4 °F /  19.1 °C 58.6 °F /  14.8 °C 30.1in /  1018.3hPa Calm     76% 0in /  0.0mm 0 W/m2
01:42 65.8 °F /  18.8 °C 58.1 °F /  14.5 °C 30.1in /  1018.3hPa Calm     76% 0in /  0.0mm 0 W/m2
01:47 65.5 °F /  18.6 °C 58.1 °F /  14.5 °C 30.1in /  1018.0hPa Calm     77% 0in /  0.0mm 0 W/m2
01:52 65.1 °F /  18.4 °C 58.1 °F /  14.5 °C 30.1in /  1018.0hPa Calm     78% 0in /  0.0mm 0 W/m2
01:57 64.9 °F /  18.3 °C 57.9 °F /  14.4 °C 30.1in /  1018.0hPa Calm     78% 0in /  0.0mm 0 W/m2
02:02 64.6 °F /  18.1 °C 57.9 °F /  14.4 °C 30.1in /  1018.0hPa Calm     79% 0in /  0.0mm 0 W/m2
02:07 64.2 °F /  17.9 °C 57.6 °F /  14.2 °C 30.1in /  1018.0hPa Calm     79% 0in /  0.0mm 0 W/m2
02:12 64 °F /  17.8 °C 57.7 °F /  14.3 °C 30.1in /  1018.0hPa Calm     80% 0in /  0.0mm 0 W/m2
02:17 63.9 °F /  17.7 °C 57.9 °F /  14.4 °C 30.1in /  1018.0hPa Calm     81% 0in /  0.0mm 0 W/m2
02:22 63.7 °F /  17.6 °C 57.7 °F /  14.3 °C 30.1in /  1018.0hPa Calm     81% 0in /  0.0mm 0 W/m2
02:27 63.5 °F /  17.5 °C 57.9 °F /  14.4 °C 30.1in /  1018.0hPa Calm     82% 0in /  0.0mm 0 W/m2
02:32 63.3 °F /  17.4 °C 57.7 °F /  14.3 °C 30.1in /  1018.0hPa Calm     82% 0in /  0.0mm 0 W/m2
02:37 63.1 °F /  17.3 °C 57.6 °F /  14.2 °C 30.1in /  1018.0hPa Calm     82% 0in /  0.0mm 0 W/m2
02:42 63 °F /  17.2 °C 57.7 °F /  14.3 °C 30.1in /  1018.0hPa Calm     83% 0in /  0.0mm 0 W/m2
02:47 62.8 °F /  17.1 °C 57.6 °F /  14.2 °C 30.1in /  1018.3hPa Calm     83% 0in /  0.0mm 0 W/m2
02:52 62.6 °F /  17 °C 57.4 °F /  14.1 °C 30.1in /  1018.3hPa Calm     83% 0in /  0.0mm 0 W/m2
02:57 62.4 °F /  16.9 °C 57.6 °F /  14.2 °C 30.1in /  1018.3hPa Calm     84% 0in /  0.0mm 0 W/m2
03:02 62.2 °F /  16.8 °C 57.4 °F /  14.1 °C 30.1in /  1018.3hPa Calm     84% 0in /  0.0mm 0 W/m2
03:07 62.1 °F /  16.7 °C 57.6 °F /  14.2 °C 30.1in /  1018.0hPa Calm     85% 0in /  0.0mm 0 W/m2
03:12 62.1 °F /  16.7 °C 57.6 °F /  14.2 °C 30.1in /  1018.0hPa Calm     85% 0in /  0.0mm 0 W/m2
03:17 61.9 °F /  16.6 °C 57.4 °F /  14.1 °C 30.1in /  1018.3hPa Calm     85% 0in /  0.0mm 0 W/m2
03:22 61.9 °F /  16.6 °C 57.4 °F /  14.1 °C 30.1in /  1018.3hPa Calm     85% 0in /  0.0mm 0 W/m2
03:27 61.9 °F /  16.6 °C 57.4 °F /  14.1 °C 30.1in /  1018.0hPa Calm     85% 0in /  0.0mm 0 W/m2
03:32 61.7 °F /  16.5 °C 57.2 °F /  14 °C 30.1in /  1018.0hPa Calm     85% 0in /  0.0mm 0 W/m2
03:37 61.7 °F /  16.5 °C 57.4 °F /  14.1 °C 30.1in /  1018.3hPa Calm     86% 0in /  0.0mm 0 W/m2
03:42 61.5 °F /  16.4 °C 57.4 °F /  14.1 °C 30.1in /  1018.3hPa Calm     86% 0in /  0.0mm 0 W/m2
03:47 61.5 °F /  16.4 °C 57.4 °F /  14.1 °C 30.1in /  1018.3hPa Calm     86% 0in /  0.0mm 0 W/m2
03:52 61.5 °F /  16.4 °C 57.4 °F /  14.1 °C 30.1in /  1018.3hPa Calm     86% 0in /  0.0mm 0 W/m2
03:57 61.3 °F /  16.3 °C 57.2 °F /  14 °C 30.1in /  1018.3hPa Calm     86% 0in /  0.0mm 0 W/m2
04:02 61.2 °F /  16.2 °C 57.2 °F /  14 °C 30.1in /  1018.3hPa Calm     87% 0in /  0.0mm 0 W/m2
04:07 61.2 °F /  16.2 °C 57.2 °F /  14 °C 30.1in /  1018.3hPa Calm     87% 0in /  0.0mm 0 W/m2
04:12 61.2 °F /  16.2 °C 57.2 °F /  14 °C 30.1in /  1018.3hPa Calm     87% 0in /  0.0mm 0 W/m2
04:17 61 °F /  16.1 °C 57 °F /  13.9 °C 30.1in /  1018.0hPa Calm     87% 0in /  0.0mm 0 W/m2
04:22 61 °F /  16.1 °C 57 °F /  13.9 °C 30.1in /  1018.0hPa Calm     87% 0in /  0.0mm 0 W/m2
04:27 60.8 °F /  16 °C 57.2 °F /  14 °C 30.1in /  1018.0hPa Calm     88% 0in /  0.0mm 0 W/m2
04:32 60.8 °F /  16 °C 57.2 °F /  14 °C 30.1in /  1018.0hPa Calm     88% 0in /  0.0mm 0 W/m2
04:37 60.8 °F /  16 °C 56.8 °F /  13.8 °C 30.1in /  1018.0hPa Calm     87% 0in /  0.0mm 0 W/m2
04:42 60.8 °F /  16 °C 56.8 °F /  13.8 °C 30.1in /  1018.0hPa Calm     87% 0in /  0.0mm 0 W/m2
04:47 60.6 °F /  15.9 °C 57 °F /  13.9 °C 30.1in /  1018.0hPa Calm     88% 0in /  0.0mm 0 W/m2
04:52 60.6 °F /  15.9 °C 57 °F /  13.9 °C 30.1in /  1018.0hPa Calm     88% 0in /  0.0mm 0 W/m2
04:57 60.8 °F /  16 °C 57.2 °F /  14 °C 30.1in /  1018.0hPa Calm     88% 0in /  0.0mm 0 W/m2
05:02 60.8 °F /  16 °C 57.2 °F /  14 °C 30.1in /  1018.0hPa Calm     88% 0in /  0.0mm 0 W/m2
05:07 61 °F /  16.1 °C 57.4 °F /  14.1 °C 30.1in /  1018.0hPa Calm   1mph /  1.6km/h 88% 0in /  0.0mm 0 W/m2
05:12 61 °F /  16.1 °C 57.4 °F /  14.1 °C 30.1in /  1018.0hPa South 0.9mph /  1.4km/h 2mph /  3.2km/h 88% 0in /  0.0mm 0 W/m2
05:17 61.2 °F /  16.2 °C 57.2 °F /  14 °C 30.1in /  1018.0hPa Calm   1mph /  1.6km/h 87% 0in /  0.0mm 0 W/m2
05:22 61.2 °F /  16.2 °C 57.2 °F /  14 °C 30.1in /  1018.3hPa Calm   2mph /  3.2km/h 87% 0in /  0.0mm 0 W/m2
05:28 61.2 °F /  16.2 °C 57.2 °F /  14 °C 30.1in /  1018.0hPa WSW 0.9mph /  1.4km/h 2mph /  3.2km/h 87% 0in /  0.0mm 0 W/m2
05:33 61.2 °F /  16.2 °C 57.2 °F /  14 °C 30.1in /  1018.0hPa Calm   3mph /  4.8km/h 87% 0in /  0.0mm 5 W/m2
05:38 61.2 °F /  16.2 °C 57.2 °F /  14 °C 30.1in /  1018.0hPa WSW 2mph /  3.2km/h 3mph /  4.8km/h 87% 0in /  0.0mm 5 W/m2
05:43 61.2 °F /  16.2 °C 57.2 °F /  14 °C 30.1in /  1018.3hPa WNW 0.9mph /  1.4km/h 2mph /  3.2km/h 87% 0in /  0.0mm 9 W/m2
05:48 61.2 °F /  16.2 °C 57 °F /  13.9 °C 30.1in /  1018.3hPa WNW 2mph /  3.2km/h 2mph /  3.2km/h 86% 0in /  0.0mm 11 W/m2
05:53 61.2 °F /  16.2 °C 57 °F /  13.9 °C 30.1in /  1018.3hPa West 0.9mph /  1.4km/h 2mph /  3.2km/h 86% 0in /  0.0mm 12 W/m2
05:58 61.3 °F /  16.3 °C 57.2 °F /  14 °C 30.1in /  1018.3hPa Calm   2mph /  3.2km/h 86% 0in /  0.0mm 16 W/m2
06:03 61.3 °F /  16.3 °C 57.2 °F /  14 °C 30.1in /  1018.3hPa Calm     86% 0in /  0.0mm 18 W/m2
06:08 61.3 °F /  16.3 °C 57.2 °F /  14 °C 30.1in /  1018.3hPa Calm   2mph /  3.2km/h 86% 0in /  0.0mm 21 W/m2
06:13 61.2 °F /  16.2 °C 57 °F /  13.9 °C 30.1in /  1018.3hPa Calm     86% 0in /  0.0mm 25 W/m2
06:18 61.2 °F /  16.2 °C 57 °F /  13.9 °C 30.1in /  1018.3hPa Calm   1mph /  1.6km/h 86% 0in /  0.0mm 26 W/m2
06:23 61.2 °F /  16.2 °C 57.2 °F /  14 °C 30.1in /  1018.3hPa Calm     87% 0in /  0.0mm 28 W/m2
06:28 61.2 °F /  16.2 °C 57.2 °F /  14 °C 30.1in /  1018.3hPa Calm     87% 0in /  0.0mm 30 W/m2
06:33 61.2 °F /  16.2 °C 57.2 °F /  14 °C 30.1in /  1018.3hPa Calm     87% 0in /  0.0mm 32 W/m2
06:38 61.2 °F /  16.2 °C 57.2 °F /  14 °C 30.1in /  1018.3hPa Calm     87% 0in /  0.0mm 33 W/m2
06:43 61.2 °F /  16.2 °C 57.2 °F /  14 °C 30.1in /  1018.3hPa Calm     87% 0in /  0.0mm 35 W/m2
06:48 61.5 °F /  16.4 °C 57.9 °F /  14.4 °C 30.1in /  1018.3hPa Calm     88% 0in /  0.0mm 37 W/m2
06:53 61.5 °F /  16.4 °C 57.6 °F /  14.2 °C 30.1in /  1018.3hPa Calm     87% 0in /  0.0mm 39 W/m2
06:58 61.9 °F /  16.6 °C 57.9 °F /  14.4 °C 30.1in /  1018.3hPa Calm     87% 0in /  0.0mm 40 W/m2
07:03 62.1 °F /  16.7 °C 58.1 °F /  14.5 °C 30.1in /  1018.3hPa Calm     87% 0in /  0.0mm 42 W/m2
07:08 62.2 °F /  16.8 °C 57.9 °F /  14.4 °C 30.1in /  1018.3hPa Calm   1mph /  1.6km/h 86% 0in /  0.0mm 42 W/m2
07:13 62.8 °F /  17.1 °C 58.3 °F /  14.6 °C 30.1in /  1018.3hPa Calm   1mph /  1.6km/h 85% 0in /  0.0mm 44 W/m2
07:18 63.1 °F /  17.3 °C 58.6 °F /  14.8 °C 30.1in /  1018.6hPa Calm   1mph /  1.6km/h 85% 0in /  0.0mm 44 W/m2
07:23 63.3 °F /  17.4 °C 58.5 °F /  14.7 °C 30.1in /  1018.6hPa Calm     84% 0in /  0.0mm 46 W/m2
07:28 63.9 °F /  17.7 °C 58.3 °F /  14.6 °C 30.1in /  1018.3hPa Calm   1mph /  1.6km/h 82% 0in /  0.0mm 47 W/m2
07:33 64.2 °F /  17.9 °C 58.6 °F /  14.8 °C 30.1in /  1018.3hPa Calm   1mph /  1.6km/h 82% 0in /  0.0mm 49 W/m2
07:38 64.8 °F /  18.2 °C 58.5 °F /  14.7 °C 30.1in /  1018.3hPa Calm     80% 0in /  0.0mm 84 W/m2
07:43 65.1 °F /  18.4 °C 58.5 °F /  14.7 °C 30.1in /  1018.3hPa Calm     79% 0in /  0.0mm 211 W/m2
07:48 65.7 °F /  18.7 °C 58.6 °F /  14.8 °C 30.1in /  1018.6hPa Calm     78% 0in /  0.0mm 234 W/m2
07:53 66.4 °F /  19.1 °C 59 °F /  15 °C 30.1in /  1018.3hPa Calm   1mph /  1.6km/h 77% 0in /  0.0mm 244 W/m2
07:58 67.5 °F /  19.7 °C 59.2 °F /  15.1 °C 30.1in /  1018.3hPa Calm     75% 0in /  0.0mm 262 W/m2
08:03 68.7 °F /  20.4 °C 59.4 °F /  15.2 °C 30.1in /  1018.3hPa Calm     72% 0in /  0.0mm 265 W/m2
08:08 69.4 °F /  20.8 °C 59.2 °F /  15.1 °C 30.1in /  1018.3hPa Calm     70% 0in /  0.0mm 197 W/m2
08:13 70.2 °F /  21.2 °C 59.5 °F /  15.3 °C 30.1in /  1018.3hPa Calm     69% 0in /  0.0mm 98 W/m2
08:18 70.5 °F /  21.4 °C 59.4 °F /  15.2 °C 30.1in /  1018.3hPa Calm   1mph /  1.6km/h 68% 0in /  0.0mm 60 W/m2
08:23 70.5 °F /  21.4 °C 59.4 °F /  15.2 °C 30.1in /  1018.3hPa Calm     68% 0in /  0.0mm 60 W/m2
08:28 71.4 °F /  21.9 °C 59.9 °F /  15.5 °C 30.1in /  1018.3hPa Calm   1mph /  1.6km/h 67% 0in /  0.0mm 60 W/m2
08:33 72.3 °F /  22.4 °C 59.9 °F /  15.5 °C 30.1in /  1018.3hPa NE 0.9mph /  1.4km/h 2mph /  3.2km/h 65% 0in /  0.0mm 58 W/m2
08:38 72.3 °F /  22.4 °C 59.5 °F /  15.3 °C 30.1in /  1018.3hPa Calm   2mph /  3.2km/h 64% 0in /  0.0mm 56 W/m2
08:43 72.1 °F /  22.3 °C 60.1 °F /  15.6 °C 30.1in /  1018.3hPa Calm   1mph /  1.6km/h 66% 0in /  0.0mm 56 W/m2
08:48 72.9 °F /  22.7 °C 59.9 °F /  15.5 °C 30.1in /  1018.3hPa ENE 2mph /  3.2km/h 2mph /  3.2km/h 64% 0in /  0.0mm 56 W/m2
08:53 73.2 °F /  22.9 °C 59.9 °F /  15.5 °C 30.1in /  1018.6hPa ESE 0.9mph /  1.4km/h 3mph /  4.8km/h 63% 0in /  0.0mm 58 W/m2
08:58 73.2 °F /  22.9 °C 60.3 °F /  15.7 °C 30.1in /  1018.3hPa East 2mph /  3.2km/h 2mph /  3.2km/h 64% 0in /  0.0mm 60 W/m2
09:03 73.2 °F /  22.9 °C 60.3 °F /  15.7 °C 30.1in /  1018.6hPa East 0.9mph /  1.4km/h 2mph /  3.2km/h 64% 0in /  0.0mm 63 W/m2
09:08 73.2 °F /  22.9 °C 59.9 °F /  15.5 °C 30.1in /  1018.6hPa NE 4mph /  6.4km/h 4mph /  6.4km/h 63% 0in /  0.0mm 142 W/m2
09:13 73.2 °F /  22.9 °C 59.4 °F /  15.2 °C 30.1in /  1018.6hPa NE 0.9mph /  1.4km/h 2mph /  3.2km/h 62% 0in /  0.0mm 295 W/m2
09:18 73.2 °F /  22.9 °C 59.9 °F /  15.5 °C 30.1in /  1018.3hPa SE 2.9mph /  4.7km/h 3mph /  4.8km/h 63% 0in /  0.0mm 468 W/m2
09:23 73.2 °F /  22.9 °C 59.4 °F /  15.2 °C 30.1in /  1018.3hPa Calm   2mph /  3.2km/h 62% 0in /  0.0mm 492 W/m2
09:28 73.2 °F /  22.9 °C 59.9 °F /  15.5 °C 30.1in /  1018.6hPa Calm   2mph /  3.2km/h 63% 0in /  0.0mm 506 W/m2
09:33 73.6 °F /  23.1 °C 61.2 °F /  16.2 °C 30.1in /  1018.6hPa Calm   2mph /  3.2km/h 65% 0in /  0.0mm 520 W/m2
09:38 73.9 °F /  23.3 °C 60.1 °F /  15.6 °C 30.1in /  1018.3hPa ENE 0.9mph /  1.4km/h 1mph /  1.6km/h 62% 0in /  0.0mm 534 W/m2
09:43 73.9 °F /  23.3 °C 60.6 °F /  15.9 °C 30.1in /  1018.3hPa ESE 2mph /  3.2km/h 2mph /  3.2km/h 63% 0in /  0.0mm 545 W/m2
09:48 74.5 °F /  23.6 °C 60.1 °F /  15.6 °C 30.1in /  1018.3hPa SE 0.9mph /  1.4km/h 4mph /  6.4km/h 61% 0in /  0.0mm 563 W/m2
09:53 74.5 °F /  23.6 °C 60.6 °F /  15.9 °C 30.1in /  1018.3hPa Calm   2mph /  3.2km/h 62% 0in /  0.0mm 568 W/m2
09:58 74.8 °F /  23.8 °C 59.5 °F /  15.3 °C 30.1in /  1018.3hPa Calm   3mph /  4.8km/h 59% 0in /  0.0mm 582 W/m2
10:03 75 °F /  23.9 °C 59.7 °F /  15.4 °C 30.1in /  1018.3hPa NNE 2mph /  3.2km/h 3mph /  4.8km/h 59% 0in /  0.0mm 578 W/m2
10:08 75.4 °F /  24.1 °C 59.5 °F /  15.3 °C 30.1in /  1018.3hPa Calm   2mph /  3.2km/h 58% 0in /  0.0mm 86 W/m2
10:13 75.7 °F /  24.3 °C 59 °F /  15 °C 30.1in /  1018.3hPa ESE 2.9mph /  4.7km/h 4mph /  6.4km/h 56% 0in /  0.0mm 107 W/m2
10:18 75.9 °F /  24.4 °C 60.1 °F /  15.6 °C 30.1in /  1018.3hPa NE 0.9mph /  1.4km/h 3mph /  4.8km/h 58% 0in /  0.0mm 613 W/m2
10:23 76.3 °F /  24.6 °C 59.4 °F /  15.2 °C 30.1in /  1018.6hPa NW 2mph /  3.2km/h 3mph /  4.8km/h 56% 0in /  0.0mm 635 W/m2
10:28 76.1 °F /  24.5 °C 59.7 °F /  15.4 °C 30.1in /  1018.6hPa NW 2mph /  3.2km/h 2mph /  3.2km/h 57% 0in /  0.0mm 645 W/m2
10:33 76.3 °F /  24.6 °C 58.5 °F /  14.7 °C 30.1in /  1018.3hPa ENE 2.9mph /  4.7km/h 3mph /  4.8km/h 54% 0in /  0.0mm 654 W/m2
10:38 76.6 °F /  24.8 °C 58.3 °F /  14.6 °C 30.1in /  1018.3hPa Calm   2mph /  3.2km/h 53% 0in /  0.0mm 680 W/m2
10:43 77.2 °F /  25.1 °C 58.3 °F /  14.6 °C 30.1in /  1018.6hPa ENE 2mph /  3.2km/h 5mph /  8km/h 52% 0in /  0.0mm 687 W/m2
10:48 77.2 °F /  25.1 °C 59.2 °F /  15.1 °C 30.1in /  1018.6hPa ESE 2mph /  3.2km/h 4mph /  6.4km/h 54% 0in /  0.0mm 700 W/m2
10:53 77.5 °F /  25.3 °C 57.9 °F /  14.4 °C 30.1in /  1018.3hPa SE 2mph /  3.2km/h 3mph /  4.8km/h 51% 0in /  0.0mm 712 W/m2
10:58 77.9 °F /  25.5 °C 59.4 °F /  15.2 °C 30.1in /  1018.6hPa ENE 2.9mph /  4.7km/h 3mph /  4.8km/h 53% 0in /  0.0mm 724 W/m2
11:03 77.9 °F /  25.5 °C 58.8 °F /  14.9 °C 30.1in /  1018.3hPa ENE 0.9mph /  1.4km/h 3mph /  4.8km/h 52% 0in /  0.0mm 735 W/m2
11:08 78.1 °F /  25.6 °C 60.1 °F /  15.6 °C 30.1in /  1018.3hPa East 2.9mph /  4.7km/h 6mph /  9.7km/h 54% 0in /  0.0mm 744 W/m2
11:13 78.3 °F /  25.7 °C 58.6 °F /  14.8 °C 30.1in /  1018.3hPa ESE 2.9mph /  4.7km/h 3mph /  4.8km/h 51% 0in /  0.0mm 749 W/m2
11:18 78.6 °F /  25.9 °C 60.1 °F /  15.6 °C 30.1in /  1018.3hPa ENE 2mph /  3.2km/h 2mph /  3.2km/h 53% 0in /  0.0mm 758 W/m2
11:23 79.2 °F /  26.2 °C 59.5 °F /  15.3 °C 30.1in /  1018.3hPa NE 0.9mph /  1.4km/h 2mph /  3.2km/h 51% 0in /  0.0mm 772 W/m2
11:28 79.2 °F /  26.2 °C 59.5 °F /  15.3 °C 30.1in /  1018.3hPa Calm   2mph /  3.2km/h 51% 0in /  0.0mm 773 W/m2
11:33 79 °F /  26.1 °C 59.4 °F /  15.2 °C 30.1in /  1018.3hPa Calm   2mph /  3.2km/h 51% 0in /  0.0mm 766 W/m2
11:38 79.3 °F /  26.3 °C 59 °F /  15 °C 30.1in /  1018.3hPa ESE 4mph /  6.4km/h 6mph /  9.7km/h 50% 0in /  0.0mm 773 W/m2
11:43 79.5 °F /  26.4 °C 59.2 °F /  15.1 °C 30.1in /  1018.3hPa WNW 2.9mph /  4.7km/h 4mph /  6.4km/h 50% 0in /  0.0mm 740 W/m2
11:48 79.3 °F /  26.3 °C 58.5 °F /  14.7 °C 30.1in /  1018.3hPa WNW 4mph /  6.4km/h 4mph /  6.4km/h 49% 0in /  0.0mm 798 W/m2
11:53 79 °F /  26.1 °C 57 °F /  13.9 °C 30.1in /  1018.3hPa NW 0.9mph /  1.4km/h 2mph /  3.2km/h 47% 0in /  0.0mm 823 W/m2
11:58 79.2 °F /  26.2 °C 59 °F /  15 °C 30.1in /  1018.3hPa NNW 2.9mph /  4.7km/h 4mph /  6.4km/h 50% 0in /  0.0mm 844 W/m2
12:03 79 °F /  26.1 °C 57.6 °F /  14.2 °C 30.1in /  1018.3hPa NW 0.9mph /  1.4km/h 2mph /  3.2km/h 48% 0in /  0.0mm 844 W/m2
12:08 79.2 °F /  26.2 °C 58.3 °F /  14.6 °C 30.1in /  1018.3hPa WSW 2.9mph /  4.7km/h 4mph /  6.4km/h 49% 0in /  0.0mm 854 W/m2
12:13 79.3 °F /  26.3 °C 58.5 °F /  14.7 °C 30.1in /  1018.3hPa WSW 0.9mph /  1.4km/h 8mph /  12.9km/h 49% 0in /  0.0mm 851 W/m2
12:18 79.3 °F /  26.3 °C 57.9 °F /  14.4 °C 30.1in /  1018.3hPa West 6mph /  9.7km/h 7mph /  11.3km/h 48% 0in /  0.0mm 846 W/m2
12:23 79.2 °F /  26.2 °C 59 °F /  15 °C 30.1in /  1018.3hPa Calm   3mph /  4.8km/h 50% 0in /  0.0mm 867 W/m2
12:28 79.3 °F /  26.3 °C 57.9 °F /  14.4 °C 30.1in /  1018.3hPa ESE 0.9mph /  1.4km/h 7mph /  11.3km/h 48% 0in /  0.0mm 891 W/m2
12:33 79.7 °F /  26.5 °C 58.8 °F /  14.9 °C 30.1in /  1018.3hPa West 2.9mph /  4.7km/h 5mph /  8km/h 49% 0in /  0.0mm 900 W/m2
12:38 80.1 °F /  26.7 °C 59.2 °F /  15.1 °C 30.1in /  1018.3hPa NNW 2.9mph /  4.7km/h 5mph /  8km/h 49% 0in /  0.0mm 930 W/m2
12:43 80.2 °F /  26.8 °C 58.1 °F /  14.5 °C 30.1in /  1018.3hPa WNW 2mph /  3.2km/h 7mph /  11.3km/h 47% 0in /  0.0mm 932 W/m2
12:48 80.2 °F /  26.8 °C 58.1 °F /  14.5 °C 30.1in /  1018.3hPa WSW 0.9mph /  1.4km/h 2mph /  3.2km/h 47% 0in /  0.0mm 912 W/m2
12:53 80.8 °F /  27.1 °C 60.4 °F /  15.8 °C 30.1in /  1018.3hPa NW 2mph /  3.2km/h 7mph /  11.3km/h 50% 0in /  0.0mm 888 W/m2
12:58 80.6 °F /  27 °C 57.9 °F /  14.4 °C 30.1in /  1018.3hPa NE 2mph /  3.2km/h 3mph /  4.8km/h 46% 0in /  0.0mm 925 W/m2
13:03 80.6 °F /  27 °C 59.7 °F /  15.4 °C 30.1in /  1018.3hPa WSW 2.9mph /  4.7km/h 5mph /  8km/h 49% 0in /  0.0mm 891 W/m2
13:08 80.1 °F /  26.7 °C 60.3 °F /  15.7 °C 30.1in /  1018.3hPa WSW 4mph /  6.4km/h 8mph /  12.9km/h 51% 0in /  0.0mm 962 W/m2
13:13 79.9 °F /  26.6 °C 60.6 °F /  15.9 °C 30.1in /  1018.3hPa WNW 2mph /  3.2km/h 5mph /  8km/h 52% 0in /  0.0mm 977 W/m2
13:18 80.1 °F /  26.7 °C 58.6 °F /  14.8 °C 30.1in /  1018.3hPa NW 4.9mph /  7.9km/h 10mph /  16.1km/h 48% 0in /  0.0mm 970 W/m2
13:23 79.9 °F /  26.6 °C 59.5 °F /  15.3 °C 30.1in /  1018.0hPa WSW 0.9mph /  1.4km/h 7mph /  11.3km/h 50% 0in /  0.0mm 976 W/m2
13:28 80.2 °F /  26.8 °C 59.4 °F /  15.2 °C 30.1in /  1018.0hPa NW 0.9mph /  1.4km/h 4mph /  6.4km/h 49% 0in /  0.0mm 997 W/m2
13:33 80.6 °F /  27 °C 60.3 °F /  15.7 °C 30.1in /  1018.0hPa WNW 4mph /  6.4km/h 8mph /  12.9km/h 50% 0in /  0.0mm 1000 W/m2
13:38 80.4 °F /  26.9 °C 59.5 °F /  15.3 °C 30.1in /  1018.0hPa NNW 0.9mph /  1.4km/h 7mph /  11.3km/h 49% 0in /  0.0mm 1013 W/m2
13:43 80.6 °F /  27 °C 59.7 °F /  15.4 °C 30.1in /  1018.0hPa Calm   4mph /  6.4km/h 49% 0in /  0.0mm 986 W/m2
13:48 81 °F /  27.2 °C 61.7 °F /  16.5 °C 30.1in /  1018.0hPa North 2mph /  3.2km/h 4mph /  6.4km/h 52% 0in /  0.0mm 949 W/m2
13:53 81 °F /  27.2 °C 59.4 °F /  15.2 °C 30.1in /  1018.0hPa NNW 2mph /  3.2km/h 7mph /  11.3km/h 48% 0in /  0.0mm 220 W/m2
13:58 80.2 °F /  26.8 °C 59.4 °F /  15.2 °C 30.1in /  1018.0hPa East 2mph /  3.2km/h 4mph /  6.4km/h 49% 0in /  0.0mm 309 W/m2
14:03 80.4 °F /  26.9 °C 61.7 °F /  16.5 °C 30.1in /  1018.0hPa NW 9mph /  14.5km/h 9mph /  14.5km/h 53% 0in /  0.0mm 1074 W/m2
14:08 81.1 °F /  27.3 °C 61.3 °F /  16.3 °C 30.1in /  1018.0hPa WNW 2.9mph /  4.7km/h 6mph /  9.7km/h 51% 0in /  0.0mm 998 W/m2
14:13 81.1 °F /  27.3 °C 61.3 °F /  16.3 °C 30.1in /  1018.0hPa West 6.9mph /  11.1km/h 7mph /  11.3km/h 51% 0in /  0.0mm 1042 W/m2
14:18 81.1 °F /  27.3 °C 61.9 °F /  16.6 °C 30.1in /  1018.0hPa WSW 0.9mph /  1.4km/h 7mph /  11.3km/h 52% 0in /  0.0mm 977 W/m2
14:23 81.1 °F /  27.3 °C 60.8 °F /  16 °C 30.1in /  1018.0hPa SW 6.9mph /  11.1km/h 10mph /  16.1km/h 50% 0in /  0.0mm 979 W/m2
14:28 81.1 °F /  27.3 °C 61.9 °F /  16.6 °C 30.1in /  1017.6hPa SW 2.9mph /  4.7km/h 4mph /  6.4km/h 52% 0in /  0.0mm 963 W/m2
14:33 81 °F /  27.2 °C 61.7 °F /  16.5 °C 30.1in /  1017.6hPa NW 2.9mph /  4.7km/h 10mph /  16.1km/h 52% 0in /  0.0mm 981 W/m2
14:38 80.8 °F /  27.1 °C 62.1 °F /  16.7 °C 30.1in /  1017.6hPa WNW 2.9mph /  4.7km/h 8mph /  12.9km/h 53% 0in /  0.0mm 1007 W/m2
14:43 81.1 °F /  27.3 °C 60.8 °F /  16 °C 30.1in /  1017.6hPa NW 4mph /  6.4km/h 4mph /  6.4km/h 50% 0in /  0.0mm 958 W/m2
14:48 81.5 °F /  27.5 °C 60.4 °F /  15.8 °C 30.1in /  1017.6hPa NNW 2.9mph /  4.7km/h 4mph /  6.4km/h 49% 0in /  0.0mm 991 W/m2
14:53 81.9 °F /  27.7 °C 61.9 °F /  16.6 °C 30.1in /  1017.6hPa WNW 0.9mph /  1.4km/h 3mph /  4.8km/h 51% 0in /  0.0mm 984 W/m2
14:58 82 °F /  27.8 °C 60.4 °F /  15.8 °C 30.1in /  1017.6hPa Calm   11mph /  17.7km/h 48% 0in /  0.0mm 1055 W/m2
15:03 82 °F /  27.8 °C 61.5 °F /  16.4 °C 30.1in /  1017.6hPa WSW 4.9mph /  7.9km/h 7mph /  11.3km/h 50% 0in /  0.0mm 960 W/m2
15:08 82 °F /  27.8 °C 60.4 °F /  15.8 °C 30.1in /  1017.6hPa West 6mph /  9.7km/h 11mph /  17.7km/h 48% 0in /  0.0mm 954 W/m2
15:13 82 °F /  27.8 °C 61 °F /  16.1 °C 30.1in /  1017.6hPa West 6mph /  9.7km/h 10mph /  16.1km/h 49% 0in /  0.0mm 954 W/m2
15:18 81.9 °F /  27.7 °C 60.3 °F /  15.7 °C 30.1in /  1017.6hPa WSW 2.9mph /  4.7km/h 7mph /  11.3km/h 48% 0in /  0.0mm 970 W/m2
15:23 81.7 °F /  27.6 °C 61.2 °F /  16.2 °C 30.1in /  1017.6hPa NW 6.9mph /  11.1km/h 7mph /  11.3km/h 50% 0in /  0.0mm 976 W/m2
15:28 82 °F /  27.8 °C 61.5 °F /  16.4 °C 30.1in /  1017.6hPa West 4mph /  6.4km/h 10mph /  16.1km/h 50% 0in /  0.0mm 949 W/m2
15:33 82.2 °F /  27.9 °C 61.2 °F /  16.2 °C 30.1in /  1017.6hPa WNW 2.9mph /  4.7km/h 10mph /  16.1km/h 49% 0in /  0.0mm 918 W/m2
15:38 82.4 °F /  28 °C 61.3 °F /  16.3 °C 30.1in /  1017.6hPa WSW 4.9mph /  7.9km/h 8mph /  12.9km/h 49% 0in /  0.0mm 895 W/m2
15:43 82.6 °F /  28.1 °C 61.5 °F /  16.4 °C 30.1in /  1017.6hPa WNW 2mph /  3.2km/h 5mph /  8km/h 49% 0in /  0.0mm 186 W/m2
15:48 82.2 °F /  27.9 °C 59.9 °F /  15.5 °C 30.1in /  1017.6hPa NNE 2.9mph /  4.7km/h 6mph /  9.7km/h 47% 0in /  0.0mm 195 W/m2
15:53 81.9 °F /  27.7 °C 60.3 °F /  15.7 °C 30.1in /  1017.6hPa WNW 4mph /  6.4km/h 9mph /  14.5km/h 48% 0in /  0.0mm 874 W/m2
15:58 81.7 °F /  27.6 °C 61.2 °F /  16.2 °C 30.1in /  1017.6hPa WSW 6.9mph /  11.1km/h 11mph /  17.7km/h 50% 0in /  0.0mm 858 W/m2
16:03 81.7 °F /  27.6 °C 60.6 °F /  15.9 °C 30in /  1017.3hPa WNW 4mph /  6.4km/h 6mph /  9.7km/h 49% 0in /  0.0mm 835 W/m2
16:08 81.9 °F /  27.7 °C 61.3 °F /  16.3 °C 30in /  1017.3hPa WSW 4mph /  6.4km/h 11mph /  17.7km/h 50% 0in /  0.0mm 854 W/m2
16:13 81.9 °F /  27.7 °C 62.4 °F /  16.9 °C 30in /  1017.3hPa WSW 4mph /  6.4km/h 6mph /  9.7km/h 52% 0in /  0.0mm 821 W/m2
16:18 81.9 °F /  27.7 °C 61.3 °F /  16.3 °C 30in /  1017.3hPa West 4mph /  6.4km/h 7mph /  11.3km/h 50% 0in /  0.0mm 814 W/m2
16:23 82.2 °F /  27.9 °C 61.2 °F /  16.2 °C 30in /  1017.3hPa WSW 2.9mph /  4.7km/h 6mph /  9.7km/h 49% 0in /  0.0mm 798 W/m2
16:28 82.2 °F /  27.9 °C 61.2 °F /  16.2 °C 30in /  1017.3hPa WSW 2.9mph /  4.7km/h 8mph /  12.9km/h 49% 0in /  0.0mm 798 W/m2
16:34 82 °F /  27.8 °C 60.4 °F /  15.8 °C 30in /  1017.3hPa WSW 2.9mph /  4.7km/h 8mph /  12.9km/h 48% 0in /  0.0mm 139 W/m2
16:39 81.7 °F /  27.6 °C 61.9 °F /  16.6 °C 30in /  1017.3hPa WNW 8.1mph /  13km/h 10mph /  16.1km/h 51% 0in /  0.0mm 752 W/m2
16:44 82 °F /  27.8 °C 61.5 °F /  16.4 °C 30in /  1017.3hPa WSW 6mph /  9.7km/h 7mph /  11.3km/h 50% 0in /  0.0mm 795 W/m2
16:49 82.2 °F /  27.9 °C 62.2 °F /  16.8 °C 30in /  1017.3hPa WSW 8.9mph /  14.3km/h 10mph /  16.1km/h 51% 0in /  0.0mm 763 W/m2
16:54 82 °F /  27.8 °C 62.1 °F /  16.7 °C 30in /  1017.3hPa WSW 2mph /  3.2km/h 7mph /  11.3km/h 51% 0in /  0.0mm 715 W/m2
16:59 82.2 °F /  27.9 °C 61.7 °F /  16.5 °C 30in /  1016.9hPa West 2.9mph /  4.7km/h 10mph /  16.1km/h 50% 0in /  0.0mm 710 W/m2
17:04 82.6 °F /  28.1 °C 62.1 °F /  16.7 °C 30in /  1016.9hPa West 6.9mph /  11.1km/h 9mph /  14.5km/h 50% 0in /  0.0mm 673 W/m2
17:09 82.2 °F /  27.9 °C 62.2 °F /  16.8 °C 30in /  1016.9hPa WSW 4.9mph /  7.9km/h 8mph /  12.9km/h 51% 0in /  0.0mm 666 W/m2
17:14 82 °F /  27.8 °C 61.5 °F /  16.4 °C 30in /  1016.9hPa West 6mph /  9.7km/h 8mph /  12.9km/h 50% 0in /  0.0mm 633 W/m2
17:19 81.9 °F /  27.7 °C 61.9 °F /  16.6 °C 30in /  1016.9hPa WSW 2.9mph /  4.7km/h 8mph /  12.9km/h 51% 0in /  0.0mm 666 W/m2
17:24 82 °F /  27.8 °C 62.1 °F /  16.7 °C 30in /  1016.9hPa North 2.9mph /  4.7km/h 10mph /  16.1km/h 51% 0in /  0.0mm 643 W/m2
17:29 82.2 °F /  27.9 °C 61.7 °F /  16.5 °C 30in /  1016.9hPa NNW 8.1mph /  13km/h 8mph /  12.9km/h 50% 0in /  0.0mm 615 W/m2
17:34 82.2 °F /  27.9 °C 61.7 °F /  16.5 °C 30in /  1016.9hPa NW 4.9mph /  7.9km/h 8mph /  12.9km/h 50% 0in /  0.0mm 608 W/m2
17:39 82.2 °F /  27.9 °C 61.7 °F /  16.5 °C 30in /  1016.9hPa West 4mph /  6.4km/h 6mph /  9.7km/h 50% 0in /  0.0mm 527 W/m2
17:44 82.2 °F /  27.9 °C 61.7 °F /  16.5 °C 30in /  1016.9hPa WNW 2.9mph /  4.7km/h 6mph /  9.7km/h 50% 0in /  0.0mm 538 W/m2
17:49 82.6 °F /  28.1 °C 61.5 °F /  16.4 °C 30in /  1016.9hPa NW 2mph /  3.2km/h 8mph /  12.9km/h 49% 0in /  0.0mm 564 W/m2
17:54 82.6 °F /  28.1 °C 61.5 °F /  16.4 °C 30in /  1016.9hPa NW 4mph /  6.4km/h 7mph /  11.3km/h 49% 0in /  0.0mm 550 W/m2
17:59 82.8 °F /  28.2 °C 61.7 °F /  16.5 °C 30in /  1016.9hPa WNW 4mph /  6.4km/h 6mph /  9.7km/h 49% 0in /  0.0mm 534 W/m2
18:04 82.6 °F /  28.1 °C 61 °F /  16.1 °C 30in /  1016.9hPa West 6mph /  9.7km/h 11mph /  17.7km/h 48% 0in /  0.0mm 529 W/m2
18:09 82 °F /  27.8 °C 61.5 °F /  16.4 °C 30in /  1016.9hPa West 2.9mph /  4.7km/h 6mph /  9.7km/h 50% 0in /  0.0mm 506 W/m2
18:14 82 °F /  27.8 °C 61.5 °F /  16.4 °C 30in /  1016.9hPa WSW 4.9mph /  7.9km/h 11mph /  17.7km/h 50% 0in /  0.0mm 487 W/m2
18:19 82 °F /  27.8 °C 61 °F /  16.1 °C 30in /  1016.9hPa SW 4mph /  6.4km/h 10mph /  16.1km/h 49% 0in /  0.0mm 476 W/m2
18:24 81.9 °F /  27.7 °C 60.8 °F /  16 °C 30in /  1016.9hPa West 4mph /  6.4km/h 4mph /  6.4km/h 49% 0in /  0.0mm 446 W/m2
18:29 82 °F /  27.8 °C 61 °F /  16.1 °C 30in /  1016.9hPa West 2.9mph /  4.7km/h 9mph /  14.5km/h 49% 0in /  0.0mm 410 W/m2
18:34 82.2 °F /  27.9 °C 61.7 °F /  16.5 °C 30in /  1016.9hPa West 0.9mph /  1.4km/h 6mph /  9.7km/h 50% 0in /  0.0mm 374 W/m2
Juneau County Weather
Compliments of Weather Underground - 4 mb